Las Coloradas, Argentina
Current Conditions -  °F | °C
As of 12:00 PM on Saturday 25 Oct 2014 (Local Time) from SAZS Reporting Station
Clear Clear  
Wind Chill: 64°   Ceiling: Unl
Heat Index: 64°   Visibility: 6mi
Dew Point: 21°   Wind: 14mph
Humidity: 19%   Direction: 320°NW
Pressure: 29.94"   Gusts: NA
Location:  39.55°S, 70.58°W
Report Text: SAZS 251500Z 32012KT CAVOK 18/M06 Q1014
Loading
Personal Weather Stations






























Interactive Weather Map New forecast layout! Learn more

10-Day Weather Forecast

Advertisements
Track Severe Weather on mobile